Time;durP1;ratioP1;P1;durP2;ratioP2;P2;SDS_P1;SDS_P2;PMS_P1;PMS_P2;Temp;Humidity;BMP_temperature;BMP_pressure;BME280_temperature;BME280_humidity;BME280_pressure;Samples;Min_cycle;Max_cycle;Signal;HPM_P1;HPM_P2
2022/01/16 00:00:42;;;;;;;8.25;7.30;;;18.30;30.20;;;;;;5088266;28;47242;-16
2022/01/16 00:05:53;;;;;;;9.95;7.82;;;18.30;30.10;;;;;;5085634;28;46954;-15
2022/01/16 00:08:20;;;;;;;10.07;7.50;;;18.30;30.10;;;;;;5087960;28;46929;-14
2022/01/16 00:10:48;;;;;;;10.02;8.00;;;18.30;30.10;;;;;;5087773;28;46887;-14
2022/01/16 00:13:15;;;;;;;9.23;7.70;;;18.30;30.10;;;;;;5088060;28;46887;-15
2022/01/16 00:15:44;;;;;;;9.55;7.63;;;18.30;30.10;;;;;;5087895;28;47128;-15
2022/01/16 00:18:20;;;;;;;7.88;7.07;;;18.30;30.10;;;;;;5087480;28;49407;-14
2022/01/16 00:20:46;;;;;;;9.68;7.43;;;18.30;30.10;;;;;;5087846;28;46985;-14
2022/01/16 00:23:13;;;;;;;8.52;7.53;;;18.30;30.00;;;;;;5087556;28;46860;-15
2022/01/16 00:25:41;;;;;;;9.38;7.75;;;18.30;30.00;;;;;;5088099;28;46896;-15
2022/01/16 00:28:09;;;;;;;9.10;7.45;;;18.30;30.00;;;;;;5088020;28;49073;-15
2022/01/16 00:30:36;;;;;;;10.05;7.28;;;18.30;30.10;;;;;;5087512;28;47098;-15
2022/01/16 00:33:02;;;;;;;9.57;7.35;;;18.30;30.10;;;;;;5087506;28;47030;-18
2022/01/16 00:35:29;;;;;;;8.98;7.40;;;18.30;30.10;;;;;;5087995;28;47143;-15
2022/01/16 00:37:56;;;;;;;9.60;7.88;;;18.30;30.10;;;;;;5087455;28;48091;-15
2022/01/16 00:40:23;;;;;;;8.55;7.40;;;18.30;30.00;;;;;;5087696;28;46940;-15
2022/01/16 00:42:50;;;;;;;8.50;7.07;;;18.30;30.00;;;;;;5087286;27;46882;-15
2022/01/16 00:45:18;;;;;;;8.10;7.13;;;18.30;30.10;;;;;;5087833;28;47158;-14
2022/01/16 00:47:45;;;;;;;9.63;7.70;;;18.30;30.10;;;;;;5087218;28;48118;-15
2022/01/16 00:50:12;;;;;;;9.95;7.50;;;18.30;30.10;;;;;;5087178;28;46764;-15
2022/01/16 00:52:39;;;;;;;7.15;6.43;;;18.30;30.10;;;;;;5087128;28;46743;-15
2022/01/16 00:55:07;;;;;;;10.65;7.22;;;18.30;30.00;;;;;;5087466;28;46920;-15
2022/01/16 00:57:34;;;;;;;8.30;7.15;;;18.30;30.10;;;;;;5086951;27;48732;-15
2022/01/16 01:00:00;;;;;;;9.23;7.68;;;18.30;30.20;;;;;;5086915;28;46815;-14
2022/01/16 01:02:28;;;;;;;9.20;7.10;;;18.20;30.70;;;;;;5086809;28;46779;-15
2022/01/16 01:04:55;;;;;;;9.05;6.90;;;18.30;30.10;;;;;;5087782;28;47186;-15
2022/01/16 01:07:22;;;;;;;8.75;6.90;;;18.30;30.10;;;;;;5087119;28;47060;-16
2022/01/16 01:09:48;;;;;;;10.15;7.90;;;18.30;30.10;;;;;;5087264;28;47124;-16
2022/01/16 01:12:25;;;;;;;9.05;7.40;;;18.30;30.10;;;;;;5087203;28;47009;-15
2022/01/16 01:15:07;;;;;;;9.25;7.57;;;18.30;30.10;;;;;;5087377;28;46860;-15
2022/01/16 01:17:42;;;;;;;8.05;7.20;;;18.30;30.10;;;;;;5086974;28;47077;-15
2022/01/16 01:20:10;;;;;;;8.25;6.55;;;18.30;30.10;;;;;;5086838;28;46938;-15
2022/01/16 01:22:37;;;;;;;9.77;7.57;;;18.30;30.00;;;;;;5086946;28;46977;-15
2022/01/16 01:25:04;;;;;;;7.63;6.82;;;18.30;30.00;;;;;;5086930;28;46900;-15
2022/01/16 01:27:33;;;;;;;9.98;7.10;;;18.30;30.00;;;;;;5086900;27;47956;-19
2022/01/16 01:30:04;;;;;;;7.60;6.85;;;18.30;30.10;;;;;;5087000;28;47053;-20
2022/01/16 01:32:32;;;;;;;7.97;6.50;;;18.30;30.10;;;;;;5086542;27;46800;-14
2022/01/16 01:35:00;;;;;;;9.00;7.25;;;18.30;30.10;;;;;;5087072;27;46876;-14
2022/01/16 01:37:27;;;;;;;8.68;7.55;;;18.30;30.10;;;;;;5086346;28;48209;-15
2022/01/16 01:39:54;;;;;;;8.93;7.28;;;18.30;30.00;;;;;;5086741;28;47206;-16
2022/01/16 01:42:20;;;;;;;8.23;7.05;;;18.30;30.00;;;;;;5086749;28;46916;-15
2022/01/16 01:53:01;;;;;;;9.27;6.82;;;18.30;30.10;;;;;;5083975;28;46974;-14
2022/01/16 01:55:27;;;;;;;8.82;6.93;;;18.30;30.00;;;;;;5086446;28;47216;-15
2022/01/16 01:57:54;;;;;;;8.48;7.30;;;18.30;30.00;;;;;;5086177;28;48822;-14
2022/01/16 02:00:21;;;;;;;8.18;6.63;;;18.30;30.00;;;;;;5086544;28;46908;-15
2022/01/16 02:03:03;;;;;;;7.93;6.50;;;18.30;30.00;;;;;;5086284;28;46921;-19
2022/01/16 02:05:31;;;;;;;8.00;7.00;;;18.30;30.10;;;;;;5086665;28;47135;-19
2022/01/16 02:07:58;;;;;;;8.23;6.65;;;18.30;30.10;;;;;;5086212;28;47932;-20
2022/01/16 02:10:24;;;;;;;9.43;7.30;;;18.30;30.00;;;;;;5086274;28;46793;-19
2022/01/16 02:12:57;;;;;;;7.88;6.65;;;18.30;30.00;;;;;;5084484;27;46915;-19
2022/01/16 02:29:48;;;;;;;8.85;6.97;;;18.20;30.10;;;;;;5085203;28;46909;-15
2022/01/16 02:32:26;;;;;;;8.88;7.00;;;18.10;30.10;;;;;;5085367;28;46940;-15
2022/01/16 02:34:53;;;;;;;8.80;6.97;;;18.10;30.10;;;;;;5086074;27;46888;-15
2022/01/16 02:37:23;;;;;;;8.95;7.18;;;18.10;30.10;;;;;;5086095;28;46961;-15
2022/01/16 02:39:53;;;;;;;8.00;6.68;;;18.10;30.10;;;;;;5085479;28;46935;-15
2022/01/16 02:42:25;;;;;;;7.78;6.50;;;18.20;30.20;;;;;;5085818;28;47349;-14
2022/01/16 02:45:01;;;;;;;8.75;6.70;;;18.10;30.10;;;;;;5085571;28;46878;-19
2022/01/16 02:47:28;;;;;;;8.27;6.63;;;18.10;30.10;;;;;;5086029;28;47049;-19
2022/01/16 02:49:55;;;;;;;7.35;6.57;;;18.10;30.10;;;;;;5085600;28;47836;-19
2022/01/16 02:52:22;;;;;;;7.47;6.60;;;18.10;30.20;;;;;;5085729;28;47124;-19
2022/01/16 02:54:51;;;;;;;9.07;6.70;;;18.10;30.20;;;;;;5085368;28;47086;-20
2022/01/16 02:57:18;;;;;;;8.93;6.70;;;18.10;30.20;;;;;;5085532;28;46931;-20
2022/01/16 02:59:47;;;;;;;8.32;6.97;;;18.10;30.20;;;;;;5085573;28;48156;-19
2022/01/16 03:02:14;;;;;;;7.80;7.00;;;18.10;30.10;;;;;;5085488;28;46834;-19
2022/01/16 03:04:41;;;;;;;8.02;6.60;;;18.10;30.10;;;;;;5085334;28;46857;-20
2022/01/16 03:07:07;;;;;;;7.82;6.85;;;18.10;30.20;;;;;;5085632;28;47301;-16
2022/01/16 03:09:50;;;;;;;7.60;6.50;;;18.10;30.10;;;;;;5085165;28;47959;-15
2022/01/16 03:12:18;;;;;;;9.75;7.20;;;18.10;30.10;;;;;;5085155;28;46909;-15
2022/01/16 03:14:45;;;;;;;8.02;6.57;;;18.10;30.10;;;;;;5085363;28;46818;-15
2022/01/16 03:17:12;;;;;;;8.25;7.18;;;18.10;30.00;;;;;;5085302;28;47123;-14
2022/01/16 03:22:23;;;;;;;8.07;6.97;;;18.10;30.10;;;;;;5082340;28;46716;-19
2022/01/16 03:24:49;;;;;;;8.25;6.45;;;18.10;30.20;;;;;;5087321;27;46828;-19
2022/01/16 03:27:19;;;;;;;7.95;6.65;;;18.10;30.10;;;;;;5088872;28;47283;-19
2022/01/16 03:29:48;;;;;;;7.43;6.38;;;18.10;30.10;;;;;;5088463;28;49353;-20
2022/01/16 03:32:16;;;;;;;7.03;6.32;;;18.10;30.10;;;;;;5088413;28;46921;-19
2022/01/16 03:34:43;;;;;;;6.95;6.25;;;18.10;30.10;;;;;;5088503;28;47000;-19
2022/01/16 03:37:09;;;;;;;7.43;6.45;;;18.10;30.10;;;;;;5088994;28;46881;-20
2022/01/16 03:39:36;;;;;;;8.18;6.63;;;18.10;30.10;;;;;;5088152;28;48731;-18
2022/01/16 03:42:03;;;;;;;7.63;6.40;;;18.00;30.10;;;;;;5088561;28;46918;-20
2022/01/16 03:44:31;;;;;;;8.82;6.88;;;18.00;30.10;;;;;;5088366;28;46805;-19
2022/01/16 03:46:58;;;;;;;7.55;6.43;;;18.10;30.10;;;;;;5088751;28;46865;-18
2022/01/16 03:49:26;;;;;;;7.68;6.70;;;18.10;30.00;;;;;;5088215;28;48248;-20
2022/01/16 03:51:54;;;;;;;8.10;6.47;;;18.00;30.00;;;;;;5088355;28;47178;-19
2022/01/16 03:54:22;;;;;;;8.07;6.72;;;18.00;30.10;;;;;;5088255;28;46822;-19
2022/01/16 03:56:49;;;;;;;7.78;6.45;;;18.00;30.10;;;;;;5088391;28;47280;-20
2022/01/16 03:59:15;;;;;;;8.38;6.90;;;18.00;30.10;;;;;;5088082;27;48254;-19
2022/01/16 04:01:43;;;;;;;8.30;7.07;;;18.00;30.10;;;;;;5088308;28;46890;-19
2022/01/16 04:04:10;;;;;;;8.32;6.80;;;18.00;30.00;;;;;;5088098;28;46839;-19
2022/01/16 04:06:37;;;;;;;8.07;7.05;;;18.00;30.00;;;;;;5088502;28;46949;-19
2022/01/16 04:09:04;;;;;;;8.70;6.88;;;18.00;30.00;;;;;;5087743;28;46949;-15
2022/01/16 04:11:30;;;;;;;8.93;7.15;;;18.00;30.00;;;;;;5088100;28;46895;-20
2022/01/16 04:14:05;;;;;;;8.50;6.65;;;18.00;30.10;;;;;;5087514;28;46787;-19
2022/01/16 04:16:32;;;;;;;7.63;6.75;;;18.00;30.00;;;;;;5088336;28;46873;-19
2022/01/16 04:19:00;;;;;;;8.35;7.15;;;18.00;30.00;;;;;;5087582;28;47855;-19
2022/01/16 04:21:28;;;;;;;6.97;6.13;;;18.00;30.00;;;;;;5088021;28;47246;-18
2022/01/16 04:23:55;;;;;;;8.73;7.28;;;18.00;30.00;;;;;;5087986;27;46889;-19
2022/01/16 04:26:23;;;;;;;9.52;7.43;;;18.00;30.00;;;;;;5088137;28;47210;-19
2022/01/16 04:28:50;;;;;;;8.90;6.93;;;18.00;30.00;;;;;;5087299;28;46814;-19
2022/01/16 04:31:17;;;;;;;8.27;7.38;;;18.00;30.00;;;;;;5087935;28;47485;-19
2022/01/16 04:33:44;;;;;;;9.13;6.82;;;18.00;30.00;;;;;;5087069;28;46864;-20
2022/01/16 04:36:12;;;;;;;9.00;7.00;;;18.00;30.00;;;;;;5086715;28;46911;-20
2022/01/16 04:38:44;;;;;;;8.80;6.82;;;18.00;30.00;;;;;;5087354;28;48832;-19
2022/01/16 04:43:55;;;;;;;8.52;7.45;;;17.90;30.00;;;;;;5086448;28;46957;-19
2022/01/16 04:46:23;;;;;;;9.52;7.20;;;17.90;30.00;;;;;;5087934;28;46900;-20
2022/01/16 04:48:49;;;;;;;8.38;7.15;;;17.90;30.00;;;;;;5086986;28;48120;-19
2022/01/16 04:51:18;;;;;;;8.63;7.10;;;17.90;30.00;;;;;;5087212;28;47145;-20
2022/01/16 04:53:45;;;;;;;9.85;6.97;;;17.90;30.00;;;;;;5086951;28;46934;-19
2022/01/16 04:56:11;;;;;;;7.60;6.55;;;17.90;30.00;;;;;;5087758;28;46903;-19
2022/01/16 04:58:38;;;;;;;9.85;7.47;;;17.90;30.00;;;;;;5086915;28;48140;-19
2022/01/16 05:01:05;;;;;;;9.60;7.30;;;17.90;30.00;;;;;;5087042;28;47384;-19
2022/01/16 05:03:32;;;;;;;9.80;7.20;;;17.90;30.00;;;;;;5086767;28;46843;-19
2022/01/16 05:05:59;;;;;;;9.00;7.07;;;17.90;30.00;;;;;;5087470;28;46842;-19
2022/01/16 05:08:28;;;;;;;9.23;7.63;;;17.90;30.00;;;;;;5086697;27;48226;-19
2022/01/16 05:10:56;;;;;;;8.90;7.20;;;17.90;30.00;;;;;;5086832;28;47108;-19
2022/01/16 05:16:34;;;;;;;8.13;6.85;;;17.90;30.00;;;;;;5087090;27;47067;-19
2022/01/16 05:16:35;;;;;;;9.00;7.07;;;17.90;30.00;;;;;;5086868;28;46887;-19
2022/01/16 05:19:02;;;;;;;8.90;7.15;;;17.90;30.00;;;;;;5087037;28;47152;-19
2022/01/16 05:21:29;;;;;;;9.52;7.38;;;17.90;30.00;;;;;;5087013;28;46977;-20
2022/01/16 05:23:57;;;;;;;9.27;6.97;;;18.00;29.90;;;;;;5086973;28;46847;-19
2022/01/16 05:26:27;;;;;;;8.38;6.85;;;18.00;29.90;;;;;;5087198;28;46829;-20
2022/01/16 05:28:53;;;;;;;8.45;6.88;;;17.90;29.90;;;;;;5086680;28;47838;-19
2022/01/16 05:31:20;;;;;;;9.63;7.20;;;17.90;29.90;;;;;;5086563;28;46960;-19
2022/01/16 05:33:47;;;;;;;8.95;7.22;;;18.00;29.90;;;;;;5085815;28;46864;-19
2022/01/16 05:36:13;;;;;;;7.65;6.53;;;18.00;29.90;;;;;;5086841;28;47342;-19
2022/01/16 05:38:40;;;;;;;8.80;6.85;;;18.00;30.30;;;;;;5086363;28;47073;-19
2022/01/16 05:41:08;;;;;;;9.15;7.50;;;18.00;29.80;;;;;;5086660;28;47508;-19
2022/01/16 05:43:35;;;;;;;7.57;6.53;;;18.00;29.80;;;;;;5086737;28;46923;-20
2022/01/16 05:46:02;;;;;;;9.75;7.43;;;18.00;29.90;;;;;;5086874;28;46945;-20
2022/01/16 05:48:28;;;;;;;8.52;7.63;;;18.00;29.90;;;;;;5085891;27;48742;-19
2022/01/16 05:50:55;;;;;;;7.68;6.53;;;18.00;29.80;;;;;;5086563;28;46728;-19
2022/01/16 05:53:22;;;;;;;8.23;6.70;;;18.00;29.80;;;;;;5086390;28;46853;-15
2022/01/16 05:55:48;;;;;;;8.77;6.90;;;18.00;29.80;;;;;;5086398;28;46931;-15
2022/01/16 05:58:17;;;;;;;8.88;6.90;;;18.00;29.70;;;;;;5086073;28;48858;-14
2022/01/16 06:00:47;;;;;;;7.90;6.47;;;18.00;29.80;;;;;;5086017;28;47282;-15
2022/01/16 06:03:14;;;;;;;7.75;6.90;;;18.00;29.80;;;;;;5086110;28;46901;-15
2022/01/16 06:05:40;;;;;;;7.45;6.38;;;18.00;29.80;;;;;;5086558;28;47077;-15
2022/01/16 06:08:10;;;;;;;7.82;6.57;;;18.00;29.70;;;;;;5085974;28;49037;-19
2022/01/16 06:10:37;;;;;;;8.45;6.90;;;18.00;29.80;;;;;;5086314;28;47007;-19
2022/01/16 06:13:05;;;;;;;9.27;7.43;;;18.00;30.20;;;;;;5086229;28;47056;-16
2022/01/16 06:15:33;;;;;;;7.95;7.15;;;17.90;29.70;;;;;;5086294;28;47309;-15
2022/01/16 06:18:00;;;;;;;8.77;6.60;;;18.00;29.80;;;;;;5085611;28;48915;-15
2022/01/16 06:20:27;;;;;;;8.95;6.68;;;18.00;29.70;;;;;;5086124;28;46876;-15
2022/01/16 06:22:54;;;;;;;8.07;6.90;;;18.00;29.70;;;;;;5085938;28;46903;-15
2022/01/16 06:25:21;;;;;;;9.27;7.53;;;18.00;29.60;;;;;;5086279;28;46966;-15
2022/01/16 06:27:47;;;;;;;8.48;6.82;;;18.00;29.70;;;;;;5085592;28;49068;-14
2022/01/16 06:30:14;;;;;;;7.97;7.05;;;17.90;29.70;;;;;;5085685;28;46980;-15
2022/01/16 06:32:43;;;;;;;8.18;6.95;;;18.00;29.70;;;;;;5085820;28;46900;-15
2022/01/16 06:35:10;;;;;;;8.85;6.90;;;18.00;29.60;;;;;;5085900;28;46916;-15
2022/01/16 06:37:37;;;;;;;8.45;7.25;;;18.00;29.60;;;;;;5085676;28;48092;-15
2022/01/16 06:40:04;;;;;;;8.70;6.95;;;18.00;29.60;;;;;;5085538;28;46827;-15
2022/01/16 06:42:30;;;;;;;7.18;6.15;;;18.00;29.60;;;;;;5085549;28;46798;-19
2022/01/16 06:44:57;;;;;;;8.80;6.53;;;17.90;29.60;;;;;;5085647;28;47167;-19
2022/01/16 06:47:24;;;;;;;8.15;6.32;;;17.90;29.60;;;;;;5085559;28;48090;-19
2022/01/16 06:49:52;;;;;;;8.40;6.55;;;18.00;29.70;;;;;;5085359;28;46937;-19
2022/01/16 06:52:19;;;;;;;8.65;6.72;;;18.00;29.60;;;;;;5085777;28;46956;-18
2022/01/16 06:54:45;;;;;;;7.82;6.63;;;17.90;29.60;;;;;;5085333;28;46887;-19
2022/01/16 06:57:12;;;;;;;8.32;6.63;;;17.90;29.60;;;;;;5085552;28;49068;-19
2022/01/16 06:59:39;;;;;;;8.32;7.00;;;17.90;29.60;;;;;;5084770;28;47208;-19
2022/01/16 07:02:06;;;;;;;7.68;6.57;;;17.90;29.60;;;;;;5085569;28;46952;-19
2022/01/16 07:04:33;;;;;;;8.55;6.93;;;17.90;29.60;;;;;;5085309;28;46948;-20
2022/01/16 07:07:01;;;;;;;8.35;6.45;;;17.90;29.60;;;;;;5085400;28;49008;-20
2022/01/16 07:09:27;;;;;;;7.80;6.82;;;17.90;29.50;;;;;;5084817;28;46813;-19
2022/01/16 07:11:54;;;;;;;9.10;6.82;;;17.90;29.60;;;;;;5085470;28;46873;-18
2022/01/16 07:14:21;;;;;;;8.48;6.90;;;17.90;29.60;;;;;;5085168;28;47356;-19
2022/01/16 07:16:47;;;;;;;9.43;6.90;;;17.90;29.60;;;;;;5085180;28;46907;-19
2022/01/16 07:19:14;;;;;;;8.57;6.57;;;17.90;30.00;;;;;;5085148;28;47438;-19
2022/01/16 07:21:41;;;;;;;8.93;6.65;;;17.90;29.50;;;;;;5085338;28;46762;-19
2022/01/16 07:24:15;;;;;;;9.30;7.38;;;17.90;29.50;;;;;;5085065;28;47337;-18
2022/01/16 07:26:42;;;;;;;8.80;6.70;;;17.80;29.50;;;;;;5085050;28;48270;-19
2022/01/16 07:29:08;;;;;;;7.35;6.55;;;17.80;29.60;;;;;;5085069;28;46899;-19
2022/01/16 07:31:38;;;;;;;8.40;6.80;;;17.80;29.60;;;;;;5084914;28;46916;-19
2022/01/16 07:34:05;;;;;;;9.88;7.25;;;17.80;29.50;;;;;;5084594;28;46777;-19
2022/01/16 07:36:31;;;;;;;8.60;6.85;;;17.80;29.50;;;;;;5084827;27;46954;-20
2022/01/16 07:38:58;;;;;;;7.90;6.88;;;17.80;29.50;;;;;;5084675;28;46828;-19
2022/01/16 07:41:26;;;;;;;9.52;7.13;;;17.80;29.50;;;;;;5085318;28;46871;-19
2022/01/16 07:43:53;;;;;;;8.30;6.90;;;17.80;29.60;;;;;;5085025;28;47006;-19
2022/01/16 07:46:20;;;;;;;7.43;6.55;;;17.80;29.50;;;;;;5084936;28;48954;-15
2022/01/16 07:48:46;;;;;;;8.50;6.93;;;17.80;29.50;;;;;;5084845;28;47169;-15
2022/01/16 07:51:13;;;;;;;8.90;7.18;;;17.80;29.40;;;;;;5084780;28;46877;-20
2022/01/16 07:53:40;;;;;;;9.32;7.18;;;17.80;29.50;;;;;;5084886;28;46963;-19
2022/01/16 07:56:06;;;;;;;8.88;7.15;;;17.80;29.50;;;;;;5084757;28;47068;-19
2022/01/16 07:58:36;;;;;;;9.50;7.63;;;17.80;29.50;;;;;;5084376;28;46913;-19
2022/01/16 08:01:03;;;;;;;8.20;6.88;;;17.80;29.50;;;;;;5084501;28;46924;-20
2022/01/16 08:03:30;;;;;;;7.05;6.35;;;17.80;29.40;;;;;;5084776;28;46942;-20
2022/01/16 08:05:56;;;;;;;8.95;7.05;;;17.80;29.40;;;;;;5084648;28;47034;-19
2022/01/16 08:08:23;;;;;;;10.32;7.57;;;17.80;29.40;;;;;;5084197;28;46874;-20
2022/01/16 08:10:50;;;;;;;8.50;6.95;;;17.80;29.40;;;;;;5085404;27;46929;-19
2022/01/16 08:13:16;;;;;;;7.68;6.32;;;17.80;29.50;;;;;;5088156;28;46822;-19
2022/01/16 08:15:44;;;;;;;8.77;6.95;;;17.80;29.40;;;;;;5087872;28;48113;-20
2022/01/16 08:18:11;;;;;;;8.82;6.65;;;17.80;29.40;;;;;;5087773;28;46809;-19
2022/01/16 08:20:38;;;;;;;9.45;7.10;;;17.80;29.40;;;;;;5087764;28;46898;-20
2022/01/16 08:23:04;;;;;;;8.68;6.68;;;17.80;29.40;;;;;;5087867;28;46880;-19
2022/01/16 08:25:31;;;;;;;8.77;6.97;;;17.80;29.50;;;;;;5087889;28;48779;-19
2022/01/16 08:27:58;;;;;;;8.23;6.65;;;17.80;29.50;;;;;;5087863;28;47427;-19
2022/01/16 08:30:25;;;;;;;7.40;6.20;;;17.80;29.40;;;;;;5087917;28;46892;-19
2022/01/16 08:32:53;;;;;;;8.77;7.05;;;17.80;29.40;;;;;;5087204;28;47252;-19
2022/01/16 08:35:19;;;;;;;8.60;6.95;;;17.80;29.40;;;;;;5087382;28;48225;-19
2022/01/16 08:37:46;;;;;;;9.73;7.45;;;17.80;29.40;;;;;;5087402;28;46990;-19
2022/01/16 08:40:14;;;;;;;8.60;7.50;;;17.80;29.50;;;;;;5087525;28;46811;-19
2022/01/16 08:42:41;;;;;;;8.13;7.05;;;17.80;29.50;;;;;;5087526;27;47204;-19
2022/01/16 08:45:09;;;;;;;7.38;6.50;;;17.80;29.40;;;;;;5087333;28;49007;-19
2022/01/16 08:47:36;;;;;;;9.85;7.20;;;17.80;29.40;;;;;;5087478;27;46898;-19
2022/01/16 08:50:05;;;;;;;8.60;7.35;;;17.80;29.40;;;;;;5087625;28;46900;-19
2022/01/16 08:52:31;;;;;;;7.93;6.90;;;17.80;29.40;;;;;;5087687;28;47254;-19
2022/01/16 08:54:58;;;;;;;7.63;6.60;;;17.80;29.50;;;;;;5087169;28;46885;-19
2022/01/16 08:57:25;;;;;;;8.77;6.63;;;17.80;29.50;;;;;;5087076;28;46739;-19
2022/01/16 08:59:51;;;;;;;8.93;7.00;;;17.90;29.50;;;;;;5087110;28;46955;-19
2022/01/16 09:02:18;;;;;;;7.40;6.15;;;17.90;29.40;;;;;;5087672;28;46898;-19
2022/01/16 09:04:45;;;;;;;9.45;6.88;;;17.90;29.40;;;;;;5087131;28;49035;-19
2022/01/16 09:07:13;;;;;;;8.95;6.90;;;17.90;29.40;;;;;;5087158;28;46880;-19
2022/01/16 09:09:40;;;;;;;9.65;6.65;;;17.90;29.50;;;;;;5086758;28;46881;-19
2022/01/16 09:12:08;;;;;;;8.32;7.13;;;17.90;29.50;;;;;;5087138;28;46912;-19
2022/01/16 09:14:34;;;;;;;7.35;6.43;;;17.90;29.50;;;;;;5086638;28;48125;-19
2022/01/16 09:17:01;;;;;;;8.20;6.88;;;17.90;29.50;;;;;;5087042;28;46874;-19
2022/01/16 09:19:29;;;;;;;8.23;6.82;;;17.90;29.40;;;;;;5086616;28;46901;-14
2022/01/16 09:21:56;;;;;;;8.63;6.90;;;17.90;29.40;;;;;;5086483;27;46880;-15
2022/01/16 09:24:24;;;;;;;8.35;6.80;;;17.90;29.50;;;;;;5086736;28;48845;-15
2022/01/16 09:26:54;;;;;;;7.72;6.55;;;17.90;29.50;;;;;;5086955;28;47009;-15
2022/01/16 09:29:21;;;;;;;8.30;6.82;;;18.00;29.50;;;;;;5086869;28;47075;-15
2022/01/16 09:31:48;;;;;;;7.78;6.60;;;18.00;29.50;;;;;;5086985;28;46871;-15
2022/01/16 09:34:14;;;;;;;8.32;6.95;;;18.00;29.50;;;;;;5085924;28;49027;-15
2022/01/16 09:36:41;;;;;;;7.53;6.63;;;18.00;29.50;;;;;;5086544;28;47038;-15
2022/01/16 09:39:08;;;;;;;7.78;6.95;;;18.00;29.60;;;;;;5086488;28;47068;-15
2022/01/16 09:41:36;;;;;;;9.60;6.97;;;18.00;29.60;;;;;;5086898;28;46922;-16
2022/01/16 09:44:03;;;;;;;8.90;7.05;;;18.00;29.50;;;;;;5086264;28;48244;-15
2022/01/16 09:46:30;;;;;;;8.60;7.00;;;18.00;29.50;;;;;;5086522;28;46835;-15
2022/01/16 09:48:56;;;;;;;8.63;6.70;;;18.00;29.60;;;;;;5086162;28;47008;-15
2022/01/16 09:51:23;;;;;;;7.80;6.40;;;18.00;29.60;;;;;;5086464;28;46886;-15
2022/01/16 09:53:50;;;;;;;7.53;6.70;;;18.00;29.60;;;;;;5086224;28;46929;-15
2022/01/16 09:56:16;;;;;;;8.35;6.85;;;18.10;29.60;;;;;;5086345;28;46760;-15
2022/01/16 09:58:44;;;;;;;8.15;7.05;;;18.10;29.60;;;;;;5086277;28;46900;-14
2022/01/16 10:01:11;;;;;;;7.95;6.50;;;18.10;29.50;;;;;;5086396;28;46894;-15
2022/01/16 10:03:39;;;;;;;6.95;6.25;;;18.20;29.50;;;;;;5086274;28;49182;-15
2022/01/16 10:06:11;;;;;;;7.32;6.47;;;18.20;29.50;;;;;;5086296;28;46816;-15
2022/01/16 10:08:39;;;;;;;7.65;6.70;;;18.20;29.60;;;;;;5086069;28;47052;-19
2022/01/16 10:11:20;;;;;;;7.25;6.57;;;18.20;29.70;;;;;;5086203;28;47382;-20
2022/01/16 10:13:57;;;;;;;8.77;7.00;;;18.20;29.70;;;;;;5085688;28;49043;-19
2022/01/16 10:16:25;;;;;;;8.38;6.68;;;18.30;29.60;;;;;;5086206;28;46982;-20
2022/01/16 10:18:52;;;;;;;7.78;6.90;;;18.30;29.60;;;;;;5085982;28;46889;-19
2022/01/16 10:21:31;;;;;;;7.93;6.53;;;18.30;29.60;;;;;;5086023;28;46920;-19
2022/01/16 10:23:58;;;;;;;7.32;6.35;;;18.30;29.70;;;;;;5085988;28;47896;-19
2022/01/16 10:26:25;;;;;;;8.35;6.95;;;18.30;29.70;;;;;;5085823;28;47444;-19
2022/01/16 10:28:53;;;;;;;8.30;6.53;;;18.30;29.70;;;;;;5085766;28;46992;-19
2022/01/16 10:31:22;;;;;;;6.80;6.07;;;18.40;29.70;;;;;;5085865;28;47274;-19
2022/01/16 10:33:49;;;;;;;7.22;6.07;;;18.40;29.60;;;;;;5084343;27;47194;-20
2022/01/16 10:36:31;;;;;;;6.75;6.05;;;18.40;29.60;;;;;;5085667;28;46831;-19
2022/01/16 10:39:05;;;;;;;7.03;6.18;;;18.40;29.60;;;;;;5085703;27;46856;-19
2022/01/16 10:41:32;;;;;;;6.38;5.53;;;18.40;29.60;;;;;;5085877;28;47117;-20
2022/01/16 10:44:00;;;;;;;6.88;5.78;;;18.50;29.70;;;;;;5085790;28;47842;-19
2022/01/16 10:46:27;;;;;;;7.18;5.97;;;18.50;29.70;;;;;;5085376;28;46837;-19
2022/01/16 10:49:12;;;;;;;6.63;5.75;;;18.50;29.60;;;;;;5085425;28;46817;-19
2022/01/16 10:51:38;;;;;;;6.85;6.03;;;18.50;29.60;;;;;;5086043;27;47179;-18
2022/01/16 10:54:29;;;;;;;7.18;5.97;;;18.50;29.70;;;;;;5085133;28;48806;-19
2022/01/16 10:56:56;;;;;;;7.28;5.70;;;18.50;29.70;;;;;;5085782;27;47517;-19
2022/01/16 10:59:24;;;;;;;6.68;5.72;;;18.50;29.70;;;;;;5085415;28;46930;-19
2022/01/16 11:02:06;;;;;;;6.95;5.50;;;18.50;29.70;;;;;;5085699;28;46920;-19
2022/01/16 11:04:33;;;;;;;6.45;5.57;;;18.60;29.70;;;;;;5085375;28;46953;-19
2022/01/16 11:07:03;;;;;;;6.43;5.82;;;18.60;29.70;;;;;;5085284;28;46835;-20
2022/01/16 11:09:29;;;;;;;7.50;6.30;;;18.60;29.70;;;;;;5085093;27;46875;-19
2022/01/16 11:11:59;;;;;;;6.22;5.63;;;18.60;29.70;;;;;;5085542;28;47180;-19
2022/01/16 11:14:27;;;;;;;6.05;5.20;;;18.60;29.70;;;;;;5085108;28;47073;-19
2022/01/16 11:16:54;;;;;;;6.25;5.55;;;18.60;29.70;;;;;;5084902;28;47096;-19
2022/01/16 11:19:23;;;;;;;6.68;5.65;;;18.70;29.70;;;;;;5084763;28;47056;-19
2022/01/16 11:21:53;;;;;;;6.13;5.35;;;18.70;29.60;;;;;;5085120;28;47309;-19
2022/01/16 11:24:34;;;;;;;5.93;5.07;;;18.70;29.60;;;;;;5084769;28;48973;-20
2022/01/16 11:27:01;;;;;;;6.25;5.53;;;18.70;29.60;;;;;;5085163;28;46980;-20
2022/01/16 11:29:30;;;;;;;6.35;5.68;;;18.80;29.60;;;;;;5084870;28;46881;-20
2022/01/16 11:31:58;;;;;;;5.97;4.95;;;18.80;29.50;;;;;;5085583;27;47020;-19
2022/01/16 11:34:26;;;;;;;5.63;5.05;;;18.90;29.50;;;;;;5084429;28;49044;-19
2022/01/16 11:36:53;;;;;;;5.65;5.05;;;18.90;29.50;;;;;;5084941;28;46995;-19
2022/01/16 11:39:20;;;;;;;5.55;4.82;;;19.00;29.50;;;;;;5084993;27;47082;-19
2022/01/16 11:41:52;;;;;;;5.60;4.97;;;19.00;29.30;;;;;;5085524;27;47124;-19
2022/01/16 11:44:23;;;;;;;5.78;4.93;;;19.10;29.30;;;;;;5084819;28;48105;-20
2022/01/16 11:46:52;;;;;;;6.38;4.95;;;19.20;29.20;;;;;;5088217;28;47497;-19
2022/01/16 11:49:30;;;;;;;6.20;4.75;;;19.20;29.10;;;;;;5088193;28;47091;-19
2022/01/16 11:52:03;;;;;;;7.82;5.32;;;19.30;29.10;;;;;;5088443;28;46921;-20
2022/01/16 11:54:31;;;;;;;5.60;4.68;;;19.40;29.00;;;;;;5088290;28;47963;-19
2022/01/16 11:57:00;;;;;;;4.97;4.40;;;19.40;28.90;;;;;;5088245;28;46826;-19
2022/01/16 11:59:28;;;;;;;6.07;5.03;;;19.50;28.90;;;;;;5088224;28;46861;-19
2022/01/16 12:01:57;;;;;;;5.32;4.82;;;19.50;28.90;;;;;;5088312;28;47286;-19
2022/01/16 12:04:49;;;;;;;5.75;5.00;;;19.60;28.90;;;;;;5087842;28;47854;-19
2022/01/16 12:07:47;;;;;;;4.60;4.13;;;19.60;28.90;;;;;;5088217;28;46929;-20
2022/01/16 12:10:29;;;;;;;5.85;4.70;;;19.60;28.90;;;;;;5088137;28;46887;-19
2022/01/16 12:12:55;;;;;;;6.00;4.80;;;19.70;28.90;;;;;;5088077;27;46896;-19
2022/01/16 12:15:22;;;;;;;5.00;4.43;;;19.70;28.80;;;;;;5087944;28;47950;-20
2022/01/16 12:17:51;;;;;;;4.95;4.45;;;19.70;28.70;;;;;;5087464;28;46906;-19
2022/01/16 12:20:23;;;;;;;5.55;4.57;;;19.80;28.70;;;;;;5087764;28;47017;-20
2022/01/16 12:22:52;;;;;;;5.15;4.10;;;19.80;28.70;;;;;;5088091;27;47150;-19
2022/01/16 12:25:20;;;;;;;5.15;4.55;;;19.80;28.70;;;;;;5087553;28;48291;-19
2022/01/16 12:27:48;;;;;;;5.95;4.40;;;19.80;28.60;;;;;;5087333;28;47157;-20
2022/01/16 12:30:39;;;;;;;5.18;4.68;;;19.90;28.60;;;;;;5088014;28;46802;-19
2022/01/16 12:33:09;;;;;;;5.00;4.45;;;19.90;28.60;;;;;;5087517;27;46889;-20
2022/01/16 12:36:23;;;;;;;4.85;4.35;;;19.90;28.60;;;;;;5087709;28;47801;-20
2022/01/16 12:38:52;;;;;;;5.20;4.40;;;20.00;28.60;;;;;;5087523;28;46979;-19
2022/01/16 12:41:25;;;;;;;5.05;4.30;;;20.00;28.50;;;;;;5087755;28;46818;-19
2022/01/16 12:43:54;;;;;;;5.15;4.55;;;20.00;28.50;;;;;;5087407;28;47199;-20
2022/01/16 12:46:23;;;;;;;5.55;4.30;;;20.00;28.50;;;;;;5087277;28;47044;-19
2022/01/16 12:48:52;;;;;;;5.80;4.28;;;20.00;28.50;;;;;;5087087;28;46980;-19
2022/01/16 12:51:19;;;;;;;5.53;4.72;;;20.00;29.00;;;;;;5087334;28;46983;-20
2022/01/16 12:53:47;;;;;;;5.22;4.40;;;20.00;29.00;;;;;;5087247;28;46947;-19
2022/01/16 12:56:24;;;;;;;5.45;4.65;;;20.00;28.50;;;;;;5086475;27;49305;-19
2022/01/16 12:58:52;;;;;;;5.45;3.92;;;20.00;28.50;;;;;;5087374;28;46900;-20
2022/01/16 13:01:19;;;;;;;4.72;4.15;;;20.00;28.50;;;;;;5087117;28;46918;-20
2022/01/16 13:03:46;;;;;;;5.03;4.53;;;19.90;28.60;;;;;;5087427;28;46924;-20
2022/01/16 13:06:22;;;;;;;5.32;4.38;;;19.80;28.70;;;;;;5086867;28;47989;-19
2022/01/16 13:09:03;;;;;;;4.90;4.50;;;19.70;28.90;;;;;;5087029;28;46825;-19
2022/01/16 13:11:31;;;;;;;4.95;4.45;;;19.60;28.90;;;;;;5086941;28;46822;-20
2022/01/16 13:13:58;;;;;;;4.50;3.97;;;19.50;29.10;;;;;;5086824;28;47031;-19
2022/01/16 13:16:26;;;;;;;5.15;4.45;;;19.40;29.10;;;;;;5086775;28;48816;-20
2022/01/16 13:19:10;;;;;;;4.45;4.05;;;19.40;29.20;;;;;;5086662;28;46878;-19
2022/01/16 13:21:48;;;;;;;5.80;4.20;;;19.30;29.30;;;;;;5086271;27;46817;-19
2022/01/16 13:24:37;;;;;;;4.82;4.20;;;19.30;29.30;;;;;;5085079;27;47181;-19